Stoke-on-Trent, United Kingdom
Current Conditions -  °F | °C
As of 4:20 PM on Tuesday 21 Oct 2014 (Local Time) from EGCC Reporting Station
Scattered Clouds Scattered Clouds  
Wind Chill: 39°   Ceiling: Unl
Heat Index: 46°   Visibility: 6mi
Dew Point: 39°   Wind: 21mph
Humidity: 76%   Direction: 290°WNW
Pressure: 29.8"   Gusts: 32mph
Location:  53°N, 2.18°W
Report Text: EGCC 211520Z 29018G28KT 9999 FEW017CB SCT033 08/04 Q1009 RERA TEMPO SHRA
Loading
Personal Weather Stations






























Interactive Weather Map
Tropical Storm Tracking
New forecast layout! Learn more

10-Day Weather Forecast

Advertisements
Track Severe Weather on mobile